createdAt,value
2022-08-09T00:00:23.147Z,100863.31
2022-08-09T00:02:52.519Z,100866.09
2022-08-09T00:06:16.495Z,100856.59
2022-08-09T00:08:31.281Z,100830.59
2022-08-09T00:10:59.684Z,100826.53
2022-08-09T00:13:31.719Z,100832.81
2022-08-09T00:16:02.340Z,100835.66
2022-08-09T00:18:34.809Z,100834.38
2022-08-09T00:21:07.735Z,100846.09
2022-08-09T00:23:57.490Z,100835.34
2022-08-09T00:26:30.158Z,100833.25
2022-08-09T00:29:02.071Z,100807.72
2022-08-09T00:31:57.637Z,100808.78
2022-08-09T00:34:19.293Z,100809.91
2022-08-09T00:36:52.076Z,100813.00
2022-08-09T00:40:08.882Z,100791.34
2022-08-09T00:44:11.855Z,100789.81
2022-08-09T00:44:55.913Z,100780.69
2022-08-09T00:47:25.306Z,100767.72
2022-08-09T00:49:56.677Z,100761.84
2022-08-09T00:52:30.370Z,100751.81
2022-08-09T00:55:00.426Z,100765.50
2022-08-09T00:57:34.240Z,100767.72
2022-08-09T01:00:20.574Z,100779.41
2022-08-09T01:03:14.546Z,100779.97
2022-08-09T01:05:54.236Z,100770.25
2022-08-09T01:08:49.682Z,100770.78
2022-08-09T01:11:34.479Z,100763.81
2022-08-09T01:14:08.003Z,100766.72
2022-08-09T01:16:47.420Z,100750.66
2022-08-09T01:19:42.944Z,100757.25
2022-08-09T01:22:31.905Z,100762.97
2022-08-09T01:25:05.884Z,100764.50
2022-08-09T01:27:36.455Z,100759.28
2022-08-09T01:30:05.839Z,100756.38
2022-08-09T01:32:45.375Z,100749.22
2022-08-09T01:35:37.213Z,100737.53
2022-08-09T01:38:14.761Z,100729.03
2022-08-09T01:41:09.808Z,100757.88
2022-08-09T01:43:51.187Z,100775.75
2022-08-09T01:46:24.977Z,100785.66
2022-08-09T01:48:56.739Z,100789.19
2022-08-09T01:51:26.206Z,100780.72
2022-08-09T01:53:58.042Z,100782.22
2022-08-09T01:56:27.553Z,100800.09
2022-08-09T01:58:56.785Z,100804.28
2022-08-09T02:01:57.658Z,100798.31
2022-08-09T02:04:15.460Z,100796.50
2022-08-09T02:07:02.689Z,100797.59
2022-08-09T02:09:41.818Z,100796.91
2022-08-09T02:12:13.403Z,100800.66
2022-08-09T02:14:47.287Z,100804.09
2022-08-09T02:17:59.476Z,100803.31
2022-08-09T02:20:10.156Z,100804.38
2022-08-09T02:22:46.390Z,100799.63
2022-08-09T02:25:20.958Z,100795.94
2022-08-09T02:28:00.496Z,100788.34
2022-08-09T02:30:52.408Z,100783.31
2022-08-09T02:33:23.111Z,100779.87
2022-08-09T02:36:08.668Z,100785.16
2022-08-09T02:38:47.858Z,100792.19
2022-08-09T02:41:28.714Z,100797.75
2022-08-09T02:44:01.420Z,100801.91
2022-08-09T02:46:39.278Z,100807.03
2022-08-09T02:49:09.961Z,100799.34
2022-08-09T02:51:40.585Z,100802.16
2022-08-09T02:54:10.256Z,100808.91
2022-08-09T02:56:41.739Z,100804.84
2022-08-09T02:59:17.679Z,100816.16
2022-08-09T03:02:06.369Z,100825.50
2022-08-09T03:04:35.985Z,100829.69
2022-08-09T03:07:12.509Z,100839.66
2022-08-09T03:09:43.621Z,100848.06
2022-08-09T03:12:23.825Z,100853.53
2022-08-09T03:14:51.951Z,100851.53
2022-08-09T03:17:26.586Z,100844.31
2022-08-09T03:20:05.015Z,100838.13
2022-08-09T03:22:41.397Z,100843.72
2022-08-09T03:25:26.731Z,100860.22
2022-08-09T03:28:02.824Z,100857.34
2022-08-09T03:30:33.363Z,100850.97
2022-08-09T03:33:17.443Z,100838.50
2022-08-09T03:36:13.619Z,100834.53
2022-08-09T03:38:42.893Z,100842.12
2022-08-09T03:41:15.297Z,100846.03
2022-08-09T03:44:03.098Z,100852.72
2022-08-09T03:46:33.140Z,100853.41
2022-08-09T03:49:03.794Z,100847.31
2022-08-09T03:51:56.536Z,100850.06
2022-08-09T03:54:29.285Z,100857.34
2022-08-09T03:56:59.825Z,100845.22
2022-08-09T03:59:52.983Z,100847.34
2022-08-09T04:02:26.197Z,100848.19
2022-08-09T04:05:00.729Z,100844.56
2022-08-09T04:07:47.183Z,100853.09
2022-08-09T04:10:28.402Z,100853.78
2022-08-09T04:13:01.378Z,100856.03
2022-08-09T04:16:18.234Z,100850.47
2022-08-09T04:18:21.574Z,100848.22
2022-08-09T04:20:51.319Z,100849.72
2022-08-09T04:23:24.544Z,100858.38
2022-08-09T04:25:54.257Z,100850.00
2022-08-09T04:28:34.146Z,100852.62
2022-08-09T04:31:08.324Z,100851.47
2022-08-09T04:33:47.635Z,100854.78
2022-08-09T04:36:23.444Z,100854.50
2022-08-09T04:38:52.432Z,100853.53
2022-08-09T04:41:23.616Z,100855.56
2022-08-09T04:44:05.266Z,100841.44
2022-08-09T04:46:58.561Z,100836.31
2022-08-09T04:49:52.906Z,100829.91
2022-08-09T04:55:12.013Z,100820.53
2022-08-09T04:57:58.988Z,100824.44
2022-08-09T05:00:31.719Z,100823.19
2022-08-09T05:03:13.418Z,100826.84
2022-08-09T05:06:06.650Z,100818.50
2022-08-09T05:08:35.657Z,100808.94
2022-08-09T05:11:07.753Z,100806.84
2022-08-09T05:13:38.943Z,100812.00
2022-08-09T05:16:08.183Z,100824.59
2022-08-09T05:18:57.501Z,100815.81
2022-08-09T05:21:30.249Z,100810.19
2022-08-09T05:24:11.905Z,100803.88
2022-08-09T05:26:47.688Z,100798.88
2022-08-09T05:29:21.635Z,100795.72
2022-08-09T05:31:56.704Z,100789.22
2022-08-09T05:34:31.068Z,100784.09
2022-08-09T05:37:06.731Z,100783.25
2022-08-09T05:39:42.884Z,100778.53
2022-08-09T05:42:17.965Z,100776.53
2022-08-09T05:44:51.304Z,100774.34
2022-08-09T05:47:21.765Z,100776.59
2022-08-09T05:50:25.967Z,100772.06
2022-08-09T05:52:43.649Z,100775.47
2022-08-09T05:55:20.607Z,100782.31
2022-08-09T05:57:56.099Z,100795.06
2022-08-09T06:00:26.453Z,100791.00
2022-08-09T06:02:57.872Z,100777.25
2022-08-09T06:05:50.549Z,100775.44
2022-08-09T06:08:19.394Z,100787.72
2022-08-09T06:10:52.382Z,100794.06
2022-08-09T06:13:20.969Z,100793.34
2022-08-09T06:15:51.125Z,100797.13
2022-08-09T06:18:24.816Z,100788.88
2022-08-09T06:20:58.371Z,100789.37
2022-08-09T06:23:57.460Z,100792.00
2022-08-09T06:26:43.646Z,100795.19
2022-08-09T06:29:15.003Z,100800.44
2022-08-09T06:32:08.826Z,100804.81
2022-08-09T06:34:33.913Z,100799.91
2022-08-09T06:37:01.634Z,100810.19
2022-08-09T06:39:48.374Z,100820.75
2022-08-09T06:42:24.833Z,100816.31
2022-08-09T06:44:57.442Z,100815.12
2022-08-09T06:47:30.251Z,100806.91
2022-08-09T06:50:14.849Z,100820.91
2022-08-09T06:52:48.677Z,100808.28
2022-08-09T06:55:22.973Z,100806.59
2022-08-09T06:58:03.117Z,100800.16
2022-08-09T07:00:55.745Z,100812.31
2022-08-09T07:03:28.113Z,100819.84
2022-08-09T07:06:03.978Z,100824.59
2022-08-09T07:08:37.175Z,100822.81
2022-08-09T07:11:07.282Z,100820.53
2022-08-09T07:13:44.927Z,100826.94
2022-08-09T07:16:41.446Z,100815.06
2022-08-09T07:19:15.561Z,100814.13
2022-08-09T07:21:55.307Z,100816.00
2022-08-09T07:24:31.977Z,100814.00
2022-08-09T07:27:23.894Z,100805.47
2022-08-09T07:29:57.174Z,100811.09
2022-08-09T07:32:33.122Z,100815.69
2022-08-09T07:35:07.909Z,100808.19
2022-08-09T07:37:43.444Z,100811.47
2022-08-09T07:40:18.530Z,100807.00
2022-08-09T07:45:52.061Z,100814.03
2022-08-09T07:48:28.651Z,100827.31
2022-08-09T07:51:10.033Z,100828.47
2022-08-09T07:54:05.779Z,100822.28
2022-08-09T07:56:49.230Z,100826.84
2022-08-09T07:59:34.885Z,100812.53
2022-08-09T08:02:07.252Z,100823.59
2022-08-09T08:08:45.158Z,100822.53
2022-08-09T08:10:14.219Z,100824.19
2022-08-09T08:12:46.387Z,100839.56
2022-08-09T08:15:35.569Z,100831.91
2022-08-09T08:18:05.341Z,100835.47
2022-08-09T08:20:33.595Z,100849.91
2022-08-09T08:23:06.995Z,100835.75
2022-08-09T08:25:49.976Z,100842.72
2022-08-09T08:28:32.258Z,100839.88
2022-08-09T08:31:10.521Z,100843.09
2022-08-09T08:33:53.187Z,100834.16
2022-08-09T08:36:42.808Z,100844.81
2022-08-09T08:39:39.276Z,100849.75
2022-08-09T08:42:12.935Z,100857.69
2022-08-09T08:44:41.840Z,100847.37
2022-08-09T08:47:12.521Z,100850.94
2022-08-09T08:49:47.756Z,100846.25
2022-08-09T08:52:57.414Z,100852.94
2022-08-09T08:55:07.297Z,100851.19
2022-08-09T08:57:38.176Z,100843.13
2022-08-09T09:00:21.011Z,100836.97
2022-08-09T09:03:02.812Z,100829.53
2022-08-09T09:05:59.906Z,100838.66
2022-08-09T09:08:43.585Z,100827.00
2022-08-09T09:11:21.003Z,100823.94
2022-08-09T09:13:56.371Z,100825.19
2022-08-09T09:16:31.013Z,100822.56
2022-08-09T09:22:04.201Z,100825.25
2022-08-09T09:24:34.819Z,100831.94
2022-08-09T09:27:03.629Z,100825.34
2022-08-09T09:29:58.125Z,100815.41
2022-08-09T09:35:13.009Z,100812.16
2022-08-09T09:37:46.122Z,100826.69
2022-08-09T09:40:13.872Z,100813.97
2022-08-09T09:42:56.021Z,100811.13
2022-08-09T09:45:25.753Z,100818.19
2022-08-09T09:47:58.516Z,100813.44
2022-08-09T09:50:50.658Z,100815.00
2022-08-09T09:53:21.401Z,100825.75
2022-08-09T09:56:04.472Z,100820.63
2022-08-09T09:58:47.152Z,100815.56
2022-08-09T10:01:31.460Z,100821.06
2022-08-09T10:04:13.128Z,100827.97
2022-08-09T10:06:47.109Z,100824.47
2022-08-09T10:09:23.097Z,100813.84
2022-08-09T10:12:12.144Z,100813.28
2022-08-09T10:14:47.690Z,100808.94
2022-08-09T10:17:39.546Z,100809.56
2022-08-09T10:20:27.569Z,100809.03
2022-08-09T10:23:13.605Z,100813.78
2022-08-09T10:26:06.184Z,100811.16
2022-08-09T10:28:34.270Z,100806.19
2022-08-09T10:34:10.791Z,100808.12
2022-08-09T10:37:01.732Z,100812.59
2022-08-09T10:39:30.186Z,100821.09
2022-08-09T10:42:09.966Z,100813.97
2022-08-09T10:44:39.793Z,100810.91
2022-08-09T10:48:14.446Z,100811.88
2022-08-09T10:50:54.953Z,100806.16
2022-08-09T10:53:37.842Z,100800.63
2022-08-09T10:56:22.948Z,100806.63
2022-08-09T10:58:54.056Z,100811.09
2022-08-09T11:03:13.337Z,100798.50
2022-08-09T11:04:30.581Z,100805.41
2022-08-09T11:07:00.975Z,100800.06
2022-08-09T11:09:41.216Z,100800.19
2022-08-09T11:12:17.749Z,100809.69
2022-08-09T11:14:51.634Z,100813.06
2022-08-09T11:17:22.967Z,100811.06
2022-08-09T11:20:10.262Z,100814.16
2022-08-09T11:22:44.697Z,100810.56
2022-08-09T11:25:44.889Z,100811.81
2022-08-09T11:28:34.298Z,100813.63
2022-08-09T11:31:03.741Z,100809.13
2022-08-09T11:33:46.270Z,100807.25
2022-08-09T11:36:35.665Z,100810.59
2022-08-09T11:39:05.043Z,100809.75
2022-08-09T11:41:37.607Z,100812.63
2022-08-09T11:44:06.859Z,100814.47
2022-08-09T11:46:53.221Z,100818.91
2022-08-09T11:49:42.602Z,100811.47
2022-08-09T11:52:59.235Z,100816.94
2022-08-09T11:55:51.624Z,100820.06
2022-08-09T11:58:50.063Z,100812.84
2022-08-09T12:01:37.622Z,100821.03
2022-08-09T12:04:09.777Z,100821.19
2022-08-09T12:06:55.686Z,100832.56
2022-08-09T12:09:27.885Z,100829.47
2022-08-09T12:12:13.124Z,100826.09
2022-08-09T12:15:07.255Z,100816.22
2022-08-09T12:17:43.567Z,100817.31
2022-08-09T12:20:21.618Z,100824.94
2022-08-09T12:22:55.693Z,100818.38
2022-08-09T12:25:37.098Z,100826.06
2022-08-09T12:29:11.407Z,100825.78
2022-08-09T12:31:10.708Z,100827.00
2022-08-09T12:33:58.517Z,100830.56
2022-08-09T12:36:33.722Z,100825.44
2022-08-09T12:39:02.406Z,100823.47
2022-08-09T12:41:38.067Z,100821.47
2022-08-09T12:44:09.689Z,100828.00
2022-08-09T12:46:39.945Z,100826.34
2022-08-09T12:49:08.986Z,100828.62
2022-08-09T12:54:22.260Z,100820.63
2022-08-09T12:56:54.419Z,100822.34
2022-08-09T12:59:23.964Z,100820.75
2022-08-09T13:02:11.787Z,100827.28
2022-08-09T13:04:59.592Z,100828.31
2022-08-09T13:07:50.925Z,100818.38
2022-08-09T13:10:19.483Z,100824.00
2022-08-09T13:13:09.411Z,100822.91
2022-08-09T13:15:50.816Z,100824.50
2022-08-09T13:18:18.861Z,100824.44
2022-08-09T13:21:20.585Z,100826.53
2022-08-09T13:24:15.846Z,100843.19
2022-08-09T13:26:43.199Z,100828.78
2022-08-09T13:29:19.007Z,100826.91
2022-08-09T13:32:17.315Z,100829.59
2022-08-09T13:34:47.002Z,100833.47
2022-08-09T13:37:24.650Z,100832.56
2022-08-09T13:41:52.043Z,100828.66
2022-08-09T13:42:55.600Z,100836.16
2022-08-09T13:45:31.806Z,100831.66
2022-08-09T13:48:14.605Z,100836.22
2022-08-09T13:50:43.452Z,100839.69
2022-08-09T13:53:11.716Z,100824.06
2022-08-09T13:55:41.416Z,100827.84
2022-08-09T13:58:12.909Z,100835.06
2022-08-09T14:00:50.484Z,100828.59
2022-08-09T14:04:02.968Z,100827.47
2022-08-09T14:06:14.616Z,100824.72
2022-08-09T14:08:47.777Z,100827.94
2022-08-09T14:11:16.225Z,100816.72
2022-08-09T14:14:23.155Z,100813.22
2022-08-09T14:16:32.601Z,100823.34
2022-08-09T14:19:02.251Z,100820.06
2022-08-09T14:21:31.924Z,100813.00
2022-08-09T14:24:01.256Z,100805.47
2022-08-09T14:26:40.927Z,100807.22
2022-08-09T14:30:15.240Z,100810.13
2022-08-09T14:31:57.674Z,100805.88
2022-08-09T14:34:32.323Z,100811.00
2022-08-09T14:37:06.587Z,100805.56
2022-08-09T14:39:40.032Z,100799.16
2022-08-09T14:42:38.954Z,100810.78
2022-08-09T14:46:57.563Z,100807.38
2022-08-09T14:47:58.609Z,100807.91
2022-08-09T14:50:28.568Z,100811.94
2022-08-09T14:52:56.458Z,100815.19
2022-08-09T14:55:25.320Z,100823.13
2022-08-09T14:57:57.324Z,100801.66
2022-08-09T15:00:25.280Z,100816.28
2022-08-09T15:02:54.747Z,100819.87
2022-08-09T15:05:26.398Z,100822.97
2022-08-09T15:07:56.857Z,100828.00
2022-08-09T15:10:27.906Z,100825.78
2022-08-09T15:12:56.540Z,100829.87
2022-08-09T15:15:24.842Z,100826.84
2022-08-09T15:17:58.555Z,100818.84
2022-08-09T15:21:54.683Z,100830.47
2022-08-09T15:24:03.599Z,100828.06
2022-08-09T15:26:02.689Z,100816.97
2022-08-09T15:28:33.564Z,100819.78
2022-08-09T15:31:10.027Z,100822.44
2022-08-09T15:34:17.574Z,100828.12
2022-08-09T15:39:12.733Z,100815.84
2022-08-09T15:41:44.950Z,100815.94
2022-08-09T15:44:16.549Z,100813.44
2022-08-09T15:46:48.166Z,100812.25
2022-08-09T15:49:21.986Z,100815.06
2022-08-09T15:52:03.309Z,100819.59
2022-08-09T15:54:52.636Z,100821.62
2022-08-09T15:57:34.351Z,100825.03
2022-08-09T16:00:10.997Z,100813.16
2022-08-09T16:02:48.019Z,100828.44
2022-08-09T16:05:22.861Z,100822.59
2022-08-09T16:07:51.278Z,100824.19
2022-08-09T16:10:56.006Z,100826.53
2022-08-09T16:13:20.921Z,100826.50
2022-08-09T16:16:10.585Z,100839.50
2022-08-09T16:18:44.817Z,100842.78
2022-08-09T16:21:17.682Z,100844.72
2022-08-09T16:23:58.305Z,100835.75
2022-08-09T16:26:34.117Z,100839.44
2022-08-09T16:29:11.852Z,100833.78
2022-08-09T16:32:18.317Z,100842.47
2022-08-09T16:34:54.530Z,100844.75
2022-08-09T16:37:54.604Z,100846.41
2022-08-09T16:40:12.982Z,100844.00
2022-08-09T16:42:45.276Z,100862.44
2022-08-09T16:45:19.005Z,100852.41
2022-08-09T16:48:41.087Z,100841.38
2022-08-09T16:50:38.695Z,100844.97
2022-08-09T16:53:06.879Z,100853.38
2022-08-09T16:55:57.768Z,100839.88
2022-08-09T16:58:25.448Z,100827.03
2022-08-09T17:00:54.966Z,100852.62
2022-08-09T17:03:23.072Z,100846.84
2022-08-09T17:06:07.857Z,100845.31
2022-08-09T17:09:00.234Z,100840.03
2022-08-09T17:11:40.703Z,100858.25
2022-08-09T17:14:26.080Z,100860.22
2022-08-09T17:17:23.254Z,100857.94
2022-08-09T17:20:32.473Z,100864.88
2022-08-09T17:22:49.725Z,100866.56
2022-08-09T17:25:20.917Z,100869.41
2022-08-09T17:27:54.603Z,100874.72
2022-08-09T17:30:28.447Z,100878.69
2022-08-09T17:33:01.373Z,100877.66
2022-08-09T17:35:41.022Z,100874.03
2022-08-09T17:38:24.293Z,100874.22
2022-08-09T17:41:00.027Z,100879.09
2022-08-09T17:43:34.160Z,100882.44
2022-08-09T17:46:09.642Z,100880.03
2022-08-09T17:48:39.727Z,100881.34
2022-08-09T17:51:17.836Z,100878.44
2022-08-09T17:53:52.115Z,100878.88
2022-08-09T17:56:27.483Z,100861.38
2022-08-09T17:59:09.168Z,100870.87
2022-08-09T18:02:03.500Z,100865.41
2022-08-09T18:04:25.792Z,100865.84
2022-08-09T18:06:55.225Z,100862.62
2022-08-09T18:09:40.282Z,100865.56
2022-08-09T18:12:17.061Z,100865.56
2022-08-09T18:18:02.187Z,100862.34
2022-08-09T18:20:55.890Z,100854.06
2022-08-09T18:24:08.866Z,100853.78
2022-08-09T18:25:59.901Z,100860.22
2022-08-09T18:30:38.744Z,100863.72
2022-08-09T18:34:20.590Z,100871.84
2022-08-09T18:36:53.437Z,100876.88
2022-08-09T18:39:32.828Z,100871.91
2022-08-09T18:42:08.029Z,100877.56
2022-08-09T18:44:36.600Z,100872.59
2022-08-09T18:47:09.651Z,100871.41
2022-08-09T18:49:46.439Z,100873.53
2022-08-09T18:52:16.147Z,100875.13
2022-08-09T18:54:53.629Z,100867.59
2022-08-09T18:57:22.930Z,100863.69
2022-08-09T18:59:55.578Z,100864.78
2022-08-09T19:02:30.567Z,100862.56
2022-08-09T19:05:14.281Z,100864.13
2022-08-09T19:10:55.658Z,100868.31
2022-08-09T19:13:49.671Z,100864.13
2022-08-09T19:16:12.904Z,100860.22
2022-08-09T19:18:45.275Z,100862.44
2022-08-09T19:21:13.368Z,100862.28
2022-08-09T19:24:39.447Z,100857.16
2022-08-09T19:26:51.493Z,100854.91
2022-08-09T19:29:20.801Z,100865.22
2022-08-09T19:31:51.298Z,100860.91
2022-08-09T19:34:22.597Z,100863.56
2022-08-09T19:36:53.576Z,100857.94
2022-08-09T19:42:07.335Z,100855.28
2022-08-09T19:47:23.332Z,100859.72
2022-08-09T19:50:07.253Z,100863.59
2022-08-09T19:55:52.728Z,100860.56
2022-08-09T19:58:17.086Z,100874.31
2022-08-09T20:00:56.903Z,100870.09
2022-08-09T20:04:13.912Z,100865.91
2022-08-09T20:06:22.400Z,100866.63
2022-08-09T20:08:52.072Z,100861.41
2022-08-09T20:11:48.878Z,100862.28
2022-08-09T20:14:21.073Z,100857.53
2022-08-09T20:16:50.312Z,100854.94
2022-08-09T20:19:48.599Z,100855.75
2022-08-09T20:22:14.091Z,100856.97
2022-08-09T20:24:51.337Z,100856.00
2022-08-09T20:27:21.752Z,100858.13
2022-08-09T20:29:50.932Z,100849.31
2022-08-09T20:35:04.106Z,100853.38
2022-08-09T20:38:18.539Z,100852.72
2022-08-09T20:40:27.120Z,100852.47
2022-08-09T20:43:00.329Z,100852.81
2022-08-09T20:46:00.996Z,100857.16
2022-08-09T20:48:36.418Z,100851.50
2022-08-09T20:51:05.514Z,100852.38
2022-08-09T20:53:36.940Z,100847.09
2022-08-09T20:56:17.407Z,100842.78
2022-08-09T20:58:48.601Z,100848.22
2022-08-09T21:01:34.516Z,100844.28
2022-08-09T21:04:08.205Z,100839.31
2022-08-09T21:06:53.056Z,100847.09
2022-08-09T21:09:25.079Z,100846.75
2022-08-09T21:14:42.257Z,100839.59
2022-08-09T21:18:22.311Z,100844.25
2022-08-09T21:20:22.624Z,100840.87
2022-08-09T21:22:54.243Z,100831.34
2022-08-09T21:25:55.356Z,100832.09
2022-08-09T21:28:55.489Z,100832.03
2022-08-09T21:31:48.506Z,100828.84
2022-08-09T21:34:21.033Z,100839.31
2022-08-09T21:36:56.808Z,100838.75
2022-08-09T21:39:27.900Z,100833.16
2022-08-09T21:42:10.412Z,100830.88
2022-08-09T21:44:39.418Z,100839.53
2022-08-09T21:47:11.142Z,100825.78
2022-08-09T21:49:46.686Z,100823.66
2022-08-09T21:52:18.512Z,100826.13
2022-08-09T21:55:03.512Z,100829.97
2022-08-09T21:57:39.532Z,100829.00
2022-08-09T22:00:33.167Z,100832.50
2022-08-09T22:03:06.474Z,100831.31
2022-08-09T22:05:36.931Z,100829.66
2022-08-09T22:08:13.103Z,100823.75
2022-08-09T22:11:49.910Z,100826.41
2022-08-09T22:13:34.741Z,100828.56
2022-08-09T22:16:04.440Z,100818.06
2022-08-09T22:18:35.998Z,100814.00
2022-08-09T22:21:09.471Z,100815.00
2022-08-09T22:23:58.870Z,100821.13
2022-08-09T22:26:35.480Z,100821.84
2022-08-09T22:29:09.247Z,100818.97
2022-08-09T22:31:50.302Z,100817.97
2022-08-09T22:34:28.638Z,100817.31
2022-08-09T22:36:57.079Z,100813.78
2022-08-09T22:39:57.936Z,100815.09
2022-08-09T22:42:21.213Z,100810.16
2022-08-09T22:45:00.151Z,100813.00
2022-08-09T22:48:13.139Z,100808.78
2022-08-09T22:50:28.439Z,100809.50
2022-08-09T22:52:57.837Z,100809.31
2022-08-09T22:55:33.715Z,100815.81
2022-08-09T22:58:31.028Z,100810.91
2022-08-09T23:01:02.375Z,100812.12
2022-08-09T23:06:32.513Z,100811.56
2022-08-09T23:09:07.787Z,100807.84
2022-08-09T23:11:35.441Z,100803.47
2022-08-09T23:14:04.231Z,100802.91
2022-08-09T23:16:45.285Z,100815.00
2022-08-09T23:19:13.160Z,100817.22
2022-08-09T23:21:40.893Z,100823.03
2022-08-09T23:24:09.207Z,100818.44
2022-08-09T23:26:37.600Z,100817.50
2022-08-09T23:29:06.408Z,100820.03
2022-08-09T23:31:34.525Z,100824.00
2022-08-09T23:34:02.734Z,100823.25
2022-08-09T23:36:34.794Z,100827.28
2022-08-09T23:39:04.689Z,100821.16
2022-08-09T23:41:32.562Z,100818.09
2022-08-09T23:44:01.249Z,100822.22
2022-08-09T23:46:30.002Z,100821.94
2022-08-09T23:48:58.138Z,100829.47
2022-08-09T23:51:26.443Z,100829.59
2022-08-09T23:53:55.192Z,100829.22
2022-08-09T23:56:53.646Z,100826.41
2022-08-09T23:59:18.436Z,100831.44
